KDNS

Denison Municipal Airport

Denison, Iowa, USA
METAR KDNS 222035Z AUTO 35005KT 10SM CLR 19/M01 A3015 RMK AO2
Observed Flight Rules
Oct-22 @ 20:35 UTC (14 minutes ago) Visual Flight Rules
Wind Visibility Clouds
350° at 5 knots 10 miles
  • Clear skies
Temperatures Readings
Current 19°C / 66°F
Dewpoint -1°C / 30°F
Humidity 26%
Altimeter 30.15" Hg
Pressure 1021 hPa
Elevation 388
METAR KDNS 222035Z AUTO 35005KT 10SM CLR 19/M01 A3015 RMK AO2
Observed Flight Rules
Oct-22 @ 20:35 UTC
(14 minutes ago)
VFR
Wind Visibility
350° at 5 knots 10 miles
Clouds
  • Clear skies
Temperature Dewpoint
19°C / 66°F -1°C / 30°F
Humidity Altimeter Pressure
26% 30.15" Hg 1021 hPa